sensor_id;sensor_type;location;lat;lon;timestamp;temperature;humidity
13174;DHT22;6652;48.802;9.190;2023-10-08T00:01:53;14.80;96.90
13174;DHT22;6652;48.802;9.190;2023-10-08T00:04:21;14.80;97.10
13174;DHT22;6652;48.802;9.190;2023-10-08T00:06:48;14.80;97.20
13174;DHT22;6652;48.802;9.190;2023-10-08T00:09:18;14.80;97.20
13174;DHT22;6652;48.802;9.190;2023-10-08T00:11:47;14.70;96.90
13174;DHT22;6652;48.802;9.190;2023-10-08T00:14:19;14.70;97.00
13174;DHT22;6652;48.802;9.190;2023-10-08T00:16:47;14.70;97.00
13174;DHT22;6652;48.802;9.190;2023-10-08T00:19:15;14.80;97.00
13174;DHT22;6652;48.802;9.190;2023-10-08T00:21:44;14.80;97.00
13174;DHT22;6652;48.802;9.190;2023-10-08T00:24:13;14.80;97.10
13174;DHT22;6652;48.802;9.190;2023-10-08T00:26:41;14.90;97.10
13174;DHT22;6652;48.802;9.190;2023-10-08T00:29:09;14.80;97.10
13174;DHT22;6652;48.802;9.190;2023-10-08T00:31:42;14.80;97.60
13174;DHT22;6652;48.802;9.190;2023-10-08T00:34:11;14.70;97.90
13174;DHT22;6652;48.802;9.190;2023-10-08T00:36:40;14.70;98.20
13174;DHT22;6652;48.802;9.190;2023-10-08T00:39:08;14.70;98.40
13174;DHT22;6652;48.802;9.190;2023-10-08T00:41:40;14.90;98.70
13174;DHT22;6652;48.802;9.190;2023-10-08T00:44:10;14.70;98.60
13174;DHT22;6652;48.802;9.190;2023-10-08T00:46:40;14.70;98.50
13174;DHT22;6652;48.802;9.190;2023-10-08T00:49:13;14.70;98.40
13174;DHT22;6652;48.802;9.190;2023-10-08T00:51:50;14.70;98.20
13174;DHT22;6652;48.802;9.190;2023-10-08T00:54:29;14.80;98.00
13174;DHT22;6652;48.802;9.190;2023-10-08T00:56:59;14.80;98.30
13174;DHT22;6652;48.802;9.190;2023-10-08T00:59:33;14.80;99.00
13174;DHT22;6652;48.802;9.190;2023-10-08T01:02:08;14.80;99.20
13174;DHT22;6652;48.802;9.190;2023-10-08T01:04:40;14.80;99.40
13174;DHT22;6652;48.802;9.190;2023-10-08T01:07:11;14.70;99.60
13174;DHT22;6652;48.802;9.190;2023-10-08T01:09:41;14.70;99.70
13174;DHT22;6652;48.802;9.190;2023-10-08T01:12:14;14.70;99.80
13174;DHT22;6652;48.802;9.190;2023-10-08T01:14:54;14.70;99.90
13174;DHT22;6652;48.802;9.190;2023-10-08T01:17:21;14.70;99.90
13174;DHT22;6652;48.802;9.190;2023-10-08T01:19:52;14.60;99.70
13174;DHT22;6652;48.802;9.190;2023-10-08T01:22:23;14.60;99.80
13174;DHT22;6652;48.802;9.190;2023-10-08T01:24:54;14.50;99.50
13174;DHT22;6652;48.802;9.190;2023-10-08T01:27:21;14.50;99.90
13174;DHT22;6652;48.802;9.190;2023-10-08T01:29:50;14.50;99.90
13174;DHT22;6652;48.802;9.190;2023-10-08T01:32:18;14.50;99.70
13174;DHT22;6652;48.802;9.190;2023-10-08T01:34:45;14.40;99.80
13174;DHT22;6652;48.802;9.190;2023-10-08T01:37:21;14.30;99.90
13174;DHT22;6652;48.802;9.190;2023-10-08T01:39:50;14.30;99.90
13174;DHT22;6652;48.802;9.190;2023-10-08T01:42:16;14.60;99.60
13174;DHT22;6652;48.802;9.190;2023-10-08T01:44:44;14.40;99.90
13174;DHT22;6652;48.802;9.190;2023-10-08T01:47:14;14.40;99.90
13174;DHT22;6652;48.802;9.190;2023-10-08T01:49:41;14.30;99.90
13174;DHT22;6652;48.802;9.190;2023-10-08T01:52:09;14.40;99.90
13174;DHT22;6652;48.802;9.190;2023-10-08T01:54:41;14.30;99.90
13174;DHT22;6652;48.802;9.190;2023-10-08T01:57:11;14.20;99.90
13174;DHT22;6652;48.802;9.190;2023-10-08T01:59:38;14.20;99.90
13174;DHT22;6652;48.802;9.190;2023-10-08T02:02:05;14.30;99.90
13174;DHT22;6652;48.802;9.190;2023-10-08T02:04:32;14.30;99.90
13174;DHT22;6652;48.802;9.190;2023-10-08T02:07:01;14.30;99.90
13174;DHT22;6652;48.802;9.190;2023-10-08T02:09:29;14.50;99.90
13174;DHT22;6652;48.802;9.190;2023-10-08T02:11:56;14.40;99.90
13174;DHT22;6652;48.802;9.190;2023-10-08T02:14:25;14.10;99.90
13174;DHT22;6652;48.802;9.190;2023-10-08T02:16:56;14.00;99.90
13174;DHT22;6652;48.802;9.190;2023-10-08T02:19:22;13.90;99.90
13174;DHT22;6652;48.802;9.190;2023-10-08T02:21:52;13.90;99.90
13174;DHT22;6652;48.802;9.190;2023-10-08T02:24:20;13.90;99.90
13174;DHT22;6652;48.802;9.190;2023-10-08T02:26:50;13.80;99.90
13174;DHT22;6652;48.802;9.190;2023-10-08T02:29:17;13.70;99.90
13174;DHT22;6652;48.802;9.190;2023-10-08T02:31:45;13.60;99.90
13174;DHT22;6652;48.802;9.190;2023-10-08T02:34:13;13.60;99.90
13174;DHT22;6652;48.802;9.190;2023-10-08T02:36:41;13.50;99.90
13174;DHT22;6652;48.802;9.190;2023-10-08T02:39:08;13.50;99.90
13174;DHT22;6652;48.802;9.190;2023-10-08T02:41:42;13.70;99.90
13174;DHT22;6652;48.802;9.190;2023-10-08T02:44:13;13.40;99.90
13174;DHT22;6652;48.802;9.190;2023-10-08T02:46:40;13.30;99.90
13174;DHT22;6652;48.802;9.190;2023-10-08T02:49:09;13.30;99.90
13174;DHT22;6652;48.802;9.190;2023-10-08T02:51:39;13.20;99.90
13174;DHT22;6652;48.802;9.190;2023-10-08T02:54:07;13.10;99.90
13174;DHT22;6652;48.802;9.190;2023-10-08T02:56:42;13.10;99.90
13174;DHT22;6652;48.802;9.190;2023-10-08T02:59:13;13.10;99.90
13174;DHT22;6652;48.802;9.190;2023-10-08T03:01:40;13.30;99.90
13174;DHT22;6652;48.802;9.190;2023-10-08T03:04:09;12.60;99.90
13174;DHT22;6652;48.802;9.190;2023-10-08T03:06:44;13.00;99.90
13174;DHT22;6652;48.802;9.190;2023-10-08T03:09:15;12.80;99.90
13174;DHT22;6652;48.802;9.190;2023-10-08T03:11:46;12.90;99.90
13174;DHT22;6652;48.802;9.190;2023-10-08T03:14:14;12.90;99.90
13174;DHT22;6652;48.802;9.190;2023-10-08T03:16:48;12.80;99.90
13174;DHT22;6652;48.802;9.190;2023-10-08T03:19:22;12.80;99.90
13174;DHT22;6652;48.802;9.190;2023-10-08T03:21:50;12.80;99.90
13174;DHT22;6652;48.802;9.190;2023-10-08T03:24:21;13.00;99.90
13174;DHT22;6652;48.802;9.190;2023-10-08T03:26:56;12.80;99.90
13174;DHT22;6652;48.802;9.190;2023-10-08T03:29:33;12.80;99.90
13174;DHT22;6652;48.802;9.190;2023-10-08T03:32:06;12.80;99.90
13174;DHT22;6652;48.802;9.190;2023-10-08T03:34:48;12.80;99.90
13174;DHT22;6652;48.802;9.190;2023-10-08T03:37:17;12.70;99.90
13174;DHT22;6652;48.802;9.190;2023-10-08T03:39:47;13.60;99.90
13174;DHT22;6652;48.802;9.190;2023-10-08T03:42:21;12.70;99.90
13174;DHT22;6652;48.802;9.190;2023-10-08T03:44:49;12.80;99.90
13174;DHT22;6652;48.802;9.190;2023-10-08T03:47:17;12.70;99.90
13174;DHT22;6652;48.802;9.190;2023-10-08T03:49:46;12.70;99.90
13174;DHT22;6652;48.802;9.190;2023-10-08T03:52:16;12.70;99.90
13174;DHT22;6652;48.802;9.190;2023-10-08T03:54:43;12.70;99.90
13174;DHT22;6652;48.802;9.190;2023-10-08T03:57:14;12.60;99.90
13174;DHT22;6652;48.802;9.190;2023-10-08T03:59:50;12.60;99.90
13174;DHT22;6652;48.802;9.190;2023-10-08T04:02:24;12.60;99.90
13174;DHT22;6652;48.802;9.190;2023-10-08T04:05:07;12.60;99.90
13174;DHT22;6652;48.802;9.190;2023-10-08T04:07:44;12.60;99.90
13174;DHT22;6652;48.802;9.190;2023-10-08T04:10:35;12.50;99.90
13174;DHT22;6652;48.802;9.190;2023-10-08T04:13:26;12.50;99.90
13174;DHT22;6652;48.802;9.190;2023-10-08T04:15:53;12.40;99.90
13174;DHT22;6652;48.802;9.190;2023-10-08T04:18:20;12.40;99.90
13174;DHT22;6652;48.802;9.190;2023-10-08T04:20:48;12.30;99.90
13174;DHT22;6652;48.802;9.190;2023-10-08T04:23:26;12.30;99.90
13174;DHT22;6652;48.802;9.190;2023-10-08T04:25:54;12.30;99.90
13174;DHT22;6652;48.802;9.190;2023-10-08T04:28:21;12.20;99.90
13174;DHT22;6652;48.802;9.190;2023-10-08T04:30:52;12.20;99.90
13174;DHT22;6652;48.802;9.190;2023-10-08T04:33:18;12.20;99.90
13174;DHT22;6652;48.802;9.190;2023-10-08T04:35:46;12.30;99.90
13174;DHT22;6652;48.802;9.190;2023-10-08T04:38:20;12.30;99.90
13174;DHT22;6652;48.802;9.190;2023-10-08T04:40:51;12.00;99.90
13174;DHT22;6652;48.802;9.190;2023-10-08T04:43:20;12.60;99.90
13174;DHT22;6652;48.802;9.190;2023-10-08T04:45:50;12.30;99.90
13174;DHT22;6652;48.802;9.190;2023-10-08T04:48:17;12.50;99.90
13174;DHT22;6652;48.802;9.190;2023-10-08T04:50:46;12.40;99.90
13174;DHT22;6652;48.802;9.190;2023-10-08T04:53:25;12.30;99.90
13174;DHT22;6652;48.802;9.190;2023-10-08T04:55:58;12.30;99.90
13174;DHT22;6652;48.802;9.190;2023-10-08T04:58:30;12.30;99.90
13174;DHT22;6652;48.802;9.190;2023-10-08T05:01:02;12.40;99.90
13174;DHT22;6652;48.802;9.190;2023-10-08T05:03:44;12.30;99.90
13174;DHT22;6652;48.802;9.190;2023-10-08T05:06:33;13.20;99.90
13174;DHT22;6652;48.802;9.190;2023-10-08T05:09:27;12.70;99.90
13174;DHT22;6652;48.802;9.190;2023-10-08T05:12:11;12.20;99.90
13174;DHT22;6652;48.802;9.190;2023-10-08T05:14:56;12.20;99.90
13174;DHT22;6652;48.802;9.190;2023-10-08T05:17:44;12.10;99.90
13174;DHT22;6652;48.802;9.190;2023-10-08T05:20:22;12.10;99.90
13174;DHT22;6652;48.802;9.190;2023-10-08T05:23:07;12.10;99.90
13174;DHT22;6652;48.802;9.190;2023-10-08T05:25:48;12.10;99.90
13174;DHT22;6652;48.802;9.190;2023-10-08T05:28:35;12.10;99.90
13174;DHT22;6652;48.802;9.190;2023-10-08T05:31:09;12.20;99.90
13174;DHT22;6652;48.802;9.190;2023-10-08T05:33:57;12.10;99.90
13174;DHT22;6652;48.802;9.190;2023-10-08T05:36:40;12.10;99.90
13174;DHT22;6652;48.802;9.190;2023-10-08T05:39:38;12.10;99.90
13174;DHT22;6652;48.802;9.190;2023-10-08T05:42:13;12.10;99.90
13174;DHT22;6652;48.802;9.190;2023-10-08T05:44:44;12.20;99.90
13174;DHT22;6652;48.802;9.190;2023-10-08T05:47:13;12.10;99.90
13174;DHT22;6652;48.802;9.190;2023-10-08T05:50:05;12.20;99.90
13174;DHT22;6652;48.802;9.190;2023-10-08T05:52:49;12.30;99.90
13174;DHT22;6652;48.802;9.190;2023-10-08T05:55:31;12.40;99.90
13174;DHT22;6652;48.802;9.190;2023-10-08T05:58:03;12.40;99.90
13174;DHT22;6652;48.802;9.190;2023-10-08T06:00:39;12.50;99.90
13174;DHT22;6652;48.802;9.190;2023-10-08T06:03:13;12.70;99.90
13174;DHT22;6652;48.802;9.190;2023-10-08T06:05:56;13.00;99.90
13174;DHT22;6652;48.802;9.190;2023-10-08T06:08:32;13.20;99.90
13174;DHT22;6652;48.802;9.190;2023-10-08T06:11:15;13.50;99.90
13174;DHT22;6652;48.802;9.190;2023-10-08T06:13:54;13.70;99.90
13174;DHT22;6652;48.802;9.190;2023-10-08T06:16:26;14.00;99.90
13174;DHT22;6652;48.802;9.190;2023-10-08T06:19:07;14.10;99.90
13174;DHT22;6652;48.802;9.190;2023-10-08T06:21:35;13.90;99.90
13174;DHT22;6652;48.802;9.190;2023-10-08T06:24:01;14.60;99.90
13174;DHT22;6652;48.802;9.190;2023-10-08T06:26:28;13.70;99.90
13174;DHT22;6652;48.802;9.190;2023-10-08T06:29:01;13.70;99.90
13174;DHT22;6652;48.802;9.190;2023-10-08T06:31:44;13.60;99.90
13174;DHT22;6652;48.802;9.190;2023-10-08T06:34:16;13.70;99.90
13174;DHT22;6652;48.802;9.190;2023-10-08T06:36:47;13.50;99.90
13174;DHT22;6652;48.802;9.190;2023-10-08T06:39:15;13.50;99.90
13174;DHT22;6652;48.802;9.190;2023-10-08T06:41:45;13.50;99.90
13174;DHT22;6652;48.802;9.190;2023-10-08T06:44:13;13.50;99.90
13174;DHT22;6652;48.802;9.190;2023-10-08T06:46:41;14.20;99.90
13174;DHT22;6652;48.802;9.190;2023-10-08T06:49:08;13.60;99.90
13174;DHT22;6652;48.802;9.190;2023-10-08T06:51:38;13.70;99.90
13174;DHT22;6652;48.802;9.190;2023-10-08T06:54:07;13.70;99.90
13174;DHT22;6652;48.802;9.190;2023-10-08T06:56:36;13.80;99.90
13174;DHT22;6652;48.802;9.190;2023-10-08T06:59:05;14.00;99.90
13174;DHT22;6652;48.802;9.190;2023-10-08T07:01:36;14.40;99.90
13174;DHT22;6652;48.802;9.190;2023-10-08T07:04:05;15.60;99.90
13174;DHT22;6652;48.802;9.190;2023-10-08T07:06:37;16.60;99.90
13174;DHT22;6652;48.802;9.190;2023-10-08T07:09:06;17.70;99.90
13174;DHT22;6652;48.802;9.190;2023-10-08T07:11:39;18.80;99.90
13174;DHT22;6652;48.802;9.190;2023-10-08T07:14:10;19.80;99.90
13174;DHT22;6652;48.802;9.190;2023-10-08T07:16:40;20.60;99.90
13174;DHT22;6652;48.802;9.190;2023-10-08T07:19:08;21.30;99.90
13174;DHT22;6652;48.802;9.190;2023-10-08T07:21:44;21.70;99.90
13174;DHT22;6652;48.802;9.190;2023-10-08T07:24:11;22.30;98.60
13174;DHT22;6652;48.802;9.190;2023-10-08T07:26:41;22.80;96.90
13174;DHT22;6652;48.802;9.190;2023-10-08T07:29:12;23.30;95.70
13174;DHT22;6652;48.802;9.190;2023-10-08T07:31:45;22.50;94.20
13174;DHT22;6652;48.802;9.190;2023-10-08T07:34:15;21.50;94.70
13174;DHT22;6652;48.802;9.190;2023-10-08T07:36:44;20.80;95.40
13174;DHT22;6652;48.802;9.190;2023-10-08T07:39:12;20.20;96.00
13174;DHT22;6652;48.802;9.190;2023-10-08T07:41:50;19.60;97.20
13174;DHT22;6652;48.802;9.190;2023-10-08T07:44:17;19.30;97.60
13174;DHT22;6652;48.802;9.190;2023-10-08T07:46:48;18.90;98.40
13174;DHT22;6652;48.802;9.190;2023-10-08T07:49:15;18.80;99.30
13174;DHT22;6652;48.802;9.190;2023-10-08T07:51:42;18.60;99.90
13174;DHT22;6652;48.802;9.190;2023-10-08T07:54:17;18.50;99.90
13174;DHT22;6652;48.802;9.190;2023-10-08T07:56:45;18.40;99.60
13174;DHT22;6652;48.802;9.190;2023-10-08T07:59:13;18.40;99.90
13174;DHT22;6652;48.802;9.190;2023-10-08T08:01:40;18.30;99.90
13174;DHT22;6652;48.802;9.190;2023-10-08T08:04:09;18.30;99.90
13174;DHT22;6652;48.802;9.190;2023-10-08T08:06:40;18.30;99.90
13174;DHT22;6652;48.802;9.190;2023-10-08T08:09:07;18.30;99.90
13174;DHT22;6652;48.802;9.190;2023-10-08T08:11:43;18.20;99.90
13174;DHT22;6652;48.802;9.190;2023-10-08T08:14:12;18.20;99.90
13174;DHT22;6652;48.802;9.190;2023-10-08T08:16:43;18.10;99.90
13174;DHT22;6652;48.802;9.190;2023-10-08T08:19:15;18.00;99.90
13174;DHT22;6652;48.802;9.190;2023-10-08T08:21:42;18.00;99.90
13174;DHT22;6652;48.802;9.190;2023-10-08T08:24:11;18.10;99.90
13174;DHT22;6652;48.802;9.190;2023-10-08T08:26:38;18.60;99.90
13174;DHT22;6652;48.802;9.190;2023-10-08T08:29:10;19.60;99.90
13174;DHT22;6652;48.802;9.190;2023-10-08T08:31:41;19.80;99.60
13174;DHT22;6652;48.802;9.190;2023-10-08T08:34:11;20.80;99.30
13174;DHT22;6652;48.802;9.190;2023-10-08T08:36:46;23.20;98.10
13174;DHT22;6652;48.802;9.190;2023-10-08T08:39:15;24.70;94.70
13174;DHT22;6652;48.802;9.190;2023-10-08T08:41:58;26.10;91.80
13174;DHT22;6652;48.802;9.190;2023-10-08T08:44:27;27.10;86.30
13174;DHT22;6652;48.802;9.190;2023-10-08T08:46:56;28.10;81.90
13174;DHT22;6652;48.802;9.190;2023-10-08T08:49:25;29.00;76.70
13174;DHT22;6652;48.802;9.190;2023-10-08T08:51:55;29.50;70.50
13174;DHT22;6652;48.802;9.190;2023-10-08T08:54:26;30.00;66.60
13174;DHT22;6652;48.802;9.190;2023-10-08T08:56:56;30.00;63.80
13174;DHT22;6652;48.802;9.190;2023-10-08T08:59:23;29.20;62.80
13174;DHT22;6652;48.802;9.190;2023-10-08T09:01:51;28.60;64.20
13174;DHT22;6652;48.802;9.190;2023-10-08T09:04:27;28.00;65.90
13174;DHT22;6652;48.802;9.190;2023-10-08T09:06:56;28.10;65.60
13174;DHT22;6652;48.802;9.190;2023-10-08T09:09:31;28.30;64.00
13174;DHT22;6652;48.802;9.190;2023-10-08T09:11:59;28.90;63.50
13174;DHT22;6652;48.802;9.190;2023-10-08T09:14:27;29.70;60.40
13174;DHT22;6652;48.802;9.190;2023-10-08T09:16:55;30.40;58.50
13174;DHT22;6652;48.802;9.190;2023-10-08T09:19:23;30.80;57.00
13174;DHT22;6652;48.802;9.190;2023-10-08T09:22:02;31.60;55.90
13174;DHT22;6652;48.802;9.190;2023-10-08T09:24:30;32.30;54.10
13174;DHT22;6652;48.802;9.190;2023-10-08T09:26:59;32.90;52.50
13174;DHT22;6652;48.802;9.190;2023-10-08T09:29:27;32.00;51.00
13174;DHT22;6652;48.802;9.190;2023-10-08T09:31:54;30.30;52.00
13174;DHT22;6652;48.802;9.190;2023-10-08T09:34:26;29.00;53.90
13174;DHT22;6652;48.802;9.190;2023-10-08T09:36:55;28.40;54.80
13174;DHT22;6652;48.802;9.190;2023-10-08T09:39:24;28.60;55.30
13174;DHT22;6652;48.802;9.190;2023-10-08T09:41:53;29.00;54.80
13174;DHT22;6652;48.802;9.190;2023-10-08T09:44:22;28.80;54.80
13174;DHT22;6652;48.802;9.190;2023-10-08T09:46:52;28.50;55.40
13174;DHT22;6652;48.802;9.190;2023-10-08T09:49:30;27.60;56.10
13174;DHT22;6652;48.802;9.190;2023-10-08T09:52:03;26.70;57.70
13174;DHT22;6652;48.802;9.190;2023-10-08T09:54:37;26.00;58.90
13174;DHT22;6652;48.802;9.190;2023-10-08T09:57:09;25.50;60.60
13174;DHT22;6652;48.802;9.190;2023-10-08T09:59:37;25.10;62.90
13174;DHT22;6652;48.802;9.190;2023-10-08T10:02:04;25.10;62.90
13174;DHT22;6652;48.802;9.190;2023-10-08T10:04:35;25.10;64.30
13174;DHT22;6652;48.802;9.190;2023-10-08T10:07:09;25.20;63.80
13174;DHT22;6652;48.802;9.190;2023-10-08T10:09:43;25.10;63.70
13174;DHT22;6652;48.802;9.190;2023-10-08T10:12:11;25.10;65.10
13174;DHT22;6652;48.802;9.190;2023-10-08T10:14:43;24.90;65.20
13174;DHT22;6652;48.802;9.190;2023-10-08T10:17:13;25.00;65.10
13174;DHT22;6652;48.802;9.190;2023-10-08T10:19:42;25.10;65.20
13174;DHT22;6652;48.802;9.190;2023-10-08T10:22:13;25.10;65.10
13174;DHT22;6652;48.802;9.190;2023-10-08T10:24:43;25.10;66.40
13174;DHT22;6652;48.802;9.190;2023-10-08T10:27:12;24.90;66.10
13174;DHT22;6652;48.802;9.190;2023-10-08T10:29:41;24.60;65.50
13174;DHT22;6652;48.802;9.190;2023-10-08T10:32:11;24.30;66.20
13174;DHT22;6652;48.802;9.190;2023-10-08T10:34:41;24.10;67.20
13174;DHT22;6652;48.802;9.190;2023-10-08T10:37:09;24.00;68.00
13174;DHT22;6652;48.802;9.190;2023-10-08T10:39:52;24.10;68.40
13174;DHT22;6652;48.802;9.190;2023-10-08T10:42:21;24.10;68.40
13174;DHT22;6652;48.802;9.190;2023-10-08T10:44:49;24.10;68.30
13174;DHT22;6652;48.802;9.190;2023-10-08T10:47:18;24.20;68.80
13174;DHT22;6652;48.802;9.190;2023-10-08T10:49:54;24.20;68.80
13174;DHT22;6652;48.802;9.190;2023-10-08T10:52:41;24.20;68.70
13174;DHT22;6652;48.802;9.190;2023-10-08T10:55:19;24.20;68.90
13174;DHT22;6652;48.802;9.190;2023-10-08T10:57:57;24.20;69.00
13174;DHT22;6652;48.802;9.190;2023-10-08T11:00:30;24.30;69.10
13174;DHT22;6652;48.802;9.190;2023-10-08T11:03:22;24.40;68.90
13174;DHT22;6652;48.802;9.190;2023-10-08T11:05:57;24.50;69.20
13174;DHT22;6652;48.802;9.190;2023-10-08T11:08:31;24.90;69.50
13174;DHT22;6652;48.802;9.190;2023-10-08T11:11:02;25.10;68.70
13174;DHT22;6652;48.802;9.190;2023-10-08T11:13:33;24.70;69.20
13174;DHT22;6652;48.802;9.190;2023-10-08T11:16:05;24.70;69.50
13174;DHT22;6652;48.802;9.190;2023-10-08T11:18:33;24.70;69.70
13174;DHT22;6652;48.802;9.190;2023-10-08T11:21:07;24.60;69.60
13174;DHT22;6652;48.802;9.190;2023-10-08T11:23:44;24.60;69.30
13174;DHT22;6652;48.802;9.190;2023-10-08T11:26:19;24.60;70.10
13174;DHT22;6652;48.802;9.190;2023-10-08T11:28:51;24.70;70.00
13174;DHT22;6652;48.802;9.190;2023-10-08T11:31:18;24.80;70.50
13174;DHT22;6652;48.802;9.190;2023-10-08T11:33:47;24.90;70.60
13174;DHT22;6652;48.802;9.190;2023-10-08T11:36:20;25.00;71.40
13174;DHT22;6652;48.802;9.190;2023-10-08T11:38:53;25.10;69.70
13174;DHT22;6652;48.802;9.190;2023-10-08T11:41:28;25.20;69.30
13174;DHT22;6652;48.802;9.190;2023-10-08T11:43:56;25.40;69.60
13174;DHT22;6652;48.802;9.190;2023-10-08T11:46:25;25.40;69.20
13174;DHT22;6652;48.802;9.190;2023-10-08T11:48:58;25.40;68.40
13174;DHT22;6652;48.802;9.190;2023-10-08T11:51:30;25.20;68.40
13174;DHT22;6652;48.802;9.190;2023-10-08T11:53:58;25.20;68.50
13174;DHT22;6652;48.802;9.190;2023-10-08T11:56:27;25.10;68.70
13174;DHT22;6652;48.802;9.190;2023-10-08T11:58:54;25.00;69.80
13174;DHT22;6652;48.802;9.190;2023-10-08T12:01:22;25.00;69.70
13174;DHT22;6652;48.802;9.190;2023-10-08T12:03:49;25.10;69.70
13174;DHT22;6652;48.802;9.190;2023-10-08T12:06:16;25.10;70.20
13174;DHT22;6652;48.802;9.190;2023-10-08T12:08:45;25.30;69.50
13174;DHT22;6652;48.802;9.190;2023-10-08T12:11:13;25.50;69.30
13174;DHT22;6652;48.802;9.190;2023-10-08T12:13:42;25.60;68.10
13174;DHT22;6652;48.802;9.190;2023-10-08T12:16:12;25.50;67.10
13174;DHT22;6652;48.802;9.190;2023-10-08T12:18:44;25.70;68.10
13174;DHT22;6652;48.802;9.190;2023-10-08T12:21:14;25.40;68.30
13174;DHT22;6652;48.802;9.190;2023-10-08T12:23:42;25.30;68.50
13174;DHT22;6652;48.802;9.190;2023-10-08T12:26:11;25.30;69.10
13174;DHT22;6652;48.802;9.190;2023-10-08T12:28:42;25.20;69.40
13174;DHT22;6652;48.802;9.190;2023-10-08T12:31:11;25.20;69.90
13174;DHT22;6652;48.802;9.190;2023-10-08T12:33:41;25.20;69.40
13174;DHT22;6652;48.802;9.190;2023-10-08T12:36:09;25.20;69.30
13174;DHT22;6652;48.802;9.190;2023-10-08T12:38:40;25.30;69.60
13174;DHT22;6652;48.802;9.190;2023-10-08T12:41:08;25.30;69.30
13174;DHT22;6652;48.802;9.190;2023-10-08T12:43:38;25.30;69.30
13174;DHT22;6652;48.802;9.190;2023-10-08T12:46:09;25.30;69.30
13174;DHT22;6652;48.802;9.190;2023-10-08T12:48:44;25.60;69.50
13174;DHT22;6652;48.802;9.190;2023-10-08T12:51:16;25.70;68.90
13174;DHT22;6652;48.802;9.190;2023-10-08T12:53:43;25.90;68.00
13174;DHT22;6652;48.802;9.190;2023-10-08T12:56:16;26.10;67.40
13174;DHT22;6652;48.802;9.190;2023-10-08T12:58:47;26.40;66.30
13174;DHT22;6652;48.802;9.190;2023-10-08T13:01:16;26.50;65.50
13174;DHT22;6652;48.802;9.190;2023-10-08T13:03:44;26.40;65.30
13174;DHT22;6652;48.802;9.190;2023-10-08T13:06:15;26.40;64.80
13174;DHT22;6652;48.802;9.190;2023-10-08T13:08:48;26.50;65.50
13174;DHT22;6652;48.802;9.190;2023-10-08T13:11:15;26.30;64.90
13174;DHT22;6652;48.802;9.190;2023-10-08T13:13:48;26.40;64.00
13174;DHT22;6652;48.802;9.190;2023-10-08T13:16:16;26.40;61.80
13174;DHT22;6652;48.802;9.190;2023-10-08T13:18:44;26.40;59.60
13174;DHT22;6652;48.802;9.190;2023-10-08T13:21:11;26.40;59.20
13174;DHT22;6652;48.802;9.190;2023-10-08T13:23:38;26.40;58.90
13174;DHT22;6652;48.802;9.190;2023-10-08T13:26:05;26.50;58.00
13174;DHT22;6652;48.802;9.190;2023-10-08T13:28:33;26.50;58.10
13174;DHT22;6652;48.802;9.190;2023-10-08T13:31:00;26.60;57.90
13174;DHT22;6652;48.802;9.190;2023-10-08T13:33:36;26.60;57.70
13174;DHT22;6652;48.802;9.190;2023-10-08T13:36:05;26.50;57.50
13174;DHT22;6652;48.802;9.190;2023-10-08T13:38:34;26.40;57.40
13174;DHT22;6652;48.802;9.190;2023-10-08T13:41:02;26.40;57.40
13174;DHT22;6652;48.802;9.190;2023-10-08T13:43:30;26.30;58.10
13174;DHT22;6652;48.802;9.190;2023-10-08T13:46:01;26.10;57.20
13174;DHT22;6652;48.802;9.190;2023-10-08T13:48:30;26.10;58.00
13174;DHT22;6652;48.802;9.190;2023-10-08T13:51:00;26.10;58.00
13174;DHT22;6652;48.802;9.190;2023-10-08T13:53:29;26.00;58.00
13174;DHT22;6652;48.802;9.190;2023-10-08T13:55:57;25.90;58.50
13174;DHT22;6652;48.802;9.190;2023-10-08T13:58:26;26.10;58.30
13174;DHT22;6652;48.802;9.190;2023-10-08T14:00:54;25.80;58.30
13174;DHT22;6652;48.802;9.190;2023-10-08T14:03:20;25.80;58.40
13174;DHT22;6652;48.802;9.190;2023-10-08T14:05:48;25.80;58.40
13174;DHT22;6652;48.802;9.190;2023-10-08T14:08:18;25.80;58.40
13174;DHT22;6652;48.802;9.190;2023-10-08T14:10:45;25.70;58.30
13174;DHT22;6652;48.802;9.190;2023-10-08T14:13:14;25.70;58.90
13174;DHT22;6652;48.802;9.190;2023-10-08T14:15:45;25.60;58.40
13174;DHT22;6652;48.802;9.190;2023-10-08T14:18:14;25.50;58.80
13174;DHT22;6652;48.802;9.190;2023-10-08T14:20:44;25.40;59.00
13174;DHT22;6652;48.802;9.190;2023-10-08T14:23:13;25.40;59.00
13174;DHT22;6652;48.802;9.190;2023-10-08T14:25:43;25.30;59.00
13174;DHT22;6652;48.802;9.190;2023-10-08T14:28:11;25.30;59.30
13174;DHT22;6652;48.802;9.190;2023-10-08T14:30:48;25.30;59.30
13174;DHT22;6652;48.802;9.190;2023-10-08T14:33:20;25.30;59.50
13174;DHT22;6652;48.802;9.190;2023-10-08T14:35:52;25.20;59.80
13174;DHT22;6652;48.802;9.190;2023-10-08T14:38:37;25.10;60.00
13174;DHT22;6652;48.802;9.190;2023-10-08T14:41:23;25.10;60.40
13174;DHT22;6652;48.802;9.190;2023-10-08T14:44:08;25.10;60.20
13174;DHT22;6652;48.802;9.190;2023-10-08T14:46:36;24.90;59.90
13174;DHT22;6652;48.802;9.190;2023-10-08T14:49:04;24.90;60.00
13174;DHT22;6652;48.802;9.190;2023-10-08T14:51:37;24.90;60.20
13174;DHT22;6652;48.802;9.190;2023-10-08T14:54:06;24.80;59.90
13174;DHT22;6652;48.802;9.190;2023-10-08T14:56:35;24.70;60.20
13174;DHT22;6652;48.802;9.190;2023-10-08T14:59:02;24.70;60.40
13174;DHT22;6652;48.802;9.190;2023-10-08T15:01:30;24.60;60.50
13174;DHT22;6652;48.802;9.190;2023-10-08T15:03:59;24.60;61.10
13174;DHT22;6652;48.802;9.190;2023-10-08T15:06:30;24.50;61.30
13174;DHT22;6652;48.802;9.190;2023-10-08T15:08:57;24.60;61.80
13174;DHT22;6652;48.802;9.190;2023-10-08T15:11:24;24.50;61.70
13174;DHT22;6652;48.802;9.190;2023-10-08T15:13:53;24.50;61.80
13174;DHT22;6652;48.802;9.190;2023-10-08T15:16:20;24.50;62.10
13174;DHT22;6652;48.802;9.190;2023-10-08T15:18:48;24.70;62.30
13174;DHT22;6652;48.802;9.190;2023-10-08T15:21:16;24.50;62.50
13174;DHT22;6652;48.802;9.190;2023-10-08T15:23:43;24.60;63.20
13174;DHT22;6652;48.802;9.190;2023-10-08T15:26:11;24.50;63.40
13174;DHT22;6652;48.802;9.190;2023-10-08T15:28:38;24.50;63.70
13174;DHT22;6652;48.802;9.190;2023-10-08T15:31:07;24.50;63.70
13174;DHT22;6652;48.802;9.190;2023-10-08T15:33:34;24.40;63.80
13174;DHT22;6652;48.802;9.190;2023-10-08T15:36:00;24.30;63.90
13174;DHT22;6652;48.802;9.190;2023-10-08T15:38:27;24.20;64.40
13174;DHT22;6652;48.802;9.190;2023-10-08T15:40:56;24.20;64.80
13174;DHT22;6652;48.802;9.190;2023-10-08T15:43:25;24.10;64.90
13174;DHT22;6652;48.802;9.190;2023-10-08T15:45:52;24.10;65.90
13174;DHT22;6652;48.802;9.190;2023-10-08T15:48:20;23.90;66.00
13174;DHT22;6652;48.802;9.190;2023-10-08T15:50:47;23.90;66.60
13174;DHT22;6652;48.802;9.190;2023-10-08T15:53:14;23.90;67.10
13174;DHT22;6652;48.802;9.190;2023-10-08T15:55:41;23.80;67.50
13174;DHT22;6652;48.802;9.190;2023-10-08T15:58:08;23.70;67.10
13174;DHT22;6652;48.802;9.190;2023-10-08T16:00:35;23.70;67.00
13174;DHT22;6652;48.802;9.190;2023-10-08T16:03:02;23.70;67.20
13174;DHT22;6652;48.802;9.190;2023-10-08T16:05:32;23.70;67.90
13174;DHT22;6652;48.802;9.190;2023-10-08T16:07:59;23.60;68.30
13174;DHT22;6652;48.802;9.190;2023-10-08T16:10:26;23.60;68.60